Time;durP1;ratioP1;P1;durP2;ratioP2;P2;SDS_P1;SDS_P2;PMS_P1;PMS_P2;Temp;Humidity;BMP_temperature;BMP_pressure;BME280_temperature;BME280_humidity;BME280_pressure;Samples;Min_cycle;Max_cycle;Signal;HPM_P1;HPM_P2
2022/06/01 00:01:51;;;;;;;19.98;11.30;;;11.70;99.90;;;;;;5025990;28;20034;-71
2022/06/01 00:04:19;;;;;;;19.35;11.13;;;11.70;99.90;;;;;;5030348;28;20029;-71
2022/06/01 00:06:45;;;;;;;16.95;10.68;;;11.70;99.90;;;;;;5030234;28;20068;-71
2022/06/01 00:09:10;;;;;;;16.80;10.30;;;11.70;99.90;;;;;;5029334;28;20429;-71
2022/06/01 00:11:36;;;;;;;16.95;10.05;;;11.70;99.90;;;;;;5028066;28;20090;-71
2022/06/01 00:14:02;;;;;;;19.00;10.48;;;11.70;99.90;;;;;;5029296;28;20098;-72
2022/06/01 00:16:27;;;;;;;16.33;9.52;;;11.60;99.90;;;;;;5029779;28;20037;-71
2022/06/01 00:18:53;;;;;;;18.05;9.95;;;11.60;99.90;;;;;;5026862;28;20033;-72
2022/06/01 00:21:19;;;;;;;14.48;9.35;;;11.60;99.90;;;;;;5028943;28;20037;-72
2022/06/01 00:23:45;;;;;;;15.48;8.25;;;11.50;99.90;;;;;;5019903;28;20040;-71
2022/06/01 00:26:10;;;;;;;14.60;7.78;;;11.50;99.90;;;;;;5039697;28;20498;-72
2022/06/01 00:28:36;;;;;;;10.70;6.75;;;11.50;99.90;;;;;;5027406;28;20114;-71
2022/06/01 00:31:03;;;;;;;12.80;7.22;;;11.50;99.90;;;;;;5027564;28;20087;-71
2022/06/01 00:33:30;;;;;;;10.63;6.20;;;11.40;99.90;;;;;;5024270;28;20038;-71
2022/06/01 00:35:56;;;;;;;11.40;6.18;;;11.40;99.90;;;;;;5017457;28;20057;-71
2022/06/01 00:38:21;;;;;;;8.63;5.03;;;11.40;99.90;;;;;;5026192;28;20083;-72
2022/06/01 00:40:48;;;;;;;6.80;4.15;;;11.30;99.90;;;;;;5028882;28;20037;-72
2022/06/01 00:43:45;;;;;;;6.53;3.95;;;11.30;99.90;;;;;;5025927;28;20586;-72
2022/06/01 00:46:13;;;;;;;5.90;3.38;;;11.30;99.90;;;;;;5015970;28;20042;-72
2022/06/01 00:48:43;;;;;;;8.10;3.35;;;11.20;99.90;;;;;;5033602;28;20037;-72
2022/06/01 00:51:11;;;;;;;6.70;3.47;;;11.20;99.90;;;;;;5033547;28;20052;-72
2022/06/01 00:53:40;;;;;;;5.63;3.42;;;11.20;99.90;;;;;;5030814;28;20069;-73
2022/06/01 00:56:11;;;;;;;6.15;3.50;;;11.10;99.90;;;;;;5033453;28;20502;-72
2022/06/01 00:58:38;;;;;;;;;;;11.20;99.90;;;;;;5033713;28;20556;-72
2022/06/01 01:01:08;;;;;;;10.90;4.47;;;11.10;99.90;;;;;;5033190;28;19920;-72
2022/06/01 01:03:37;;;;;;;7.53;4.10;;;11.10;99.90;;;;;;5033620;28;20037;-72
2022/06/01 01:06:11;;;;;;;7.05;3.72;;;11.10;99.90;;;;;;5032385;28;20066;-72
2022/06/01 01:08:37;;;;;;;7.50;4.13;;;11.10;99.90;;;;;;5027220;28;20043;-72
2022/06/01 01:11:06;;;;;;;5.30;3.42;;;11.10;99.90;;;;;;5027716;28;20037;-72
2022/06/01 01:13:32;;;;;;;6.32;4.00;;;11.10;99.90;;;;;;5031519;28;20044;-72
2022/06/01 01:15:59;;;;;;;8.05;4.53;;;11.10;99.90;;;;;;5021984;28;20030;-72
2022/06/01 01:18:35;;;;;;;11.30;4.95;;;11.10;99.90;;;;;;5033703;28;20038;-72
2022/06/01 01:21:16;;;;;;;9.43;4.75;;;11.00;99.90;;;;;;5024690;28;20033;-72
2022/06/01 01:24:13;;;;;;;9.45;5.18;;;11.00;99.90;;;;;;5028939;28;20029;-72
2022/06/01 01:26:42;;;;;;;10.52;6.07;;;11.00;99.90;;;;;;5034036;28;20034;-72
2022/06/01 01:29:10;;;;;;;8.57;5.25;;;10.90;99.90;;;;;;5043357;28;20029;-72
2022/06/01 01:31:38;;;;;;;9.00;5.63;;;11.00;99.90;;;;;;5042220;28;20022;-72
2022/06/01 01:34:05;;;;;;;10.38;5.32;;;11.00;99.90;;;;;;5033868;28;20505;-72
2022/06/01 01:36:49;;;;;;;10.43;6.13;;;11.00;99.90;;;;;;5032178;28;20036;-72
2022/06/01 01:39:16;;;;;;;9.82;5.78;;;11.00;99.90;;;;;;5031084;28;20087;-71
2022/06/01 01:41:42;;;;;;;10.02;5.75;;;11.00;99.90;;;;;;5030976;28;20125;-72
2022/06/01 01:44:15;;;;;;;12.32;5.70;;;11.00;99.90;;;;;;5027322;28;20121;-73
2022/06/01 01:46:47;;;;;;;9.38;4.85;;;11.00;99.90;;;;;;5030561;28;20536;-72
2022/06/01 01:49:14;;;;;;;12.70;5.93;;;11.00;99.90;;;;;;5032872;28;20056;-71
2022/06/01 01:51:40;;;;;;;12.20;6.60;;;11.00;99.90;;;;;;5030146;28;20098;-72
2022/06/01 01:54:17;;;;;;;7.40;5.00;;;11.00;99.90;;;;;;5031118;28;20089;-72
2022/06/01 01:57:03;;;;;;;7.47;4.80;;;11.00;99.90;;;;;;5031046;28;20409;-72
2022/06/01 01:59:29;;;;;;;7.25;4.55;;;11.00;99.90;;;;;;5023910;28;20037;-72
2022/06/01 02:01:59;;;;;;;7.47;4.97;;;11.00;99.90;;;;;;5023136;28;20074;-72
2022/06/01 02:07:35;;;;;;;6.88;3.92;;;11.00;99.90;;;;;;5024933;28;20389;-72
2022/06/01 02:12:47;;;;;;;7.35;4.25;;;11.00;99.90;;;;;;5031088;28;20517;-72
2022/06/01 02:15:22;;;;;;;9.30;5.20;;;10.90;99.90;;;;;;5023298;28;20512;-72
2022/06/01 02:17:51;;;;;;;9.68;4.80;;;10.90;99.90;;;;;;5040660;28;20045;-72
2022/06/01 02:20:28;;;;;;;9.32;4.95;;;10.90;99.90;;;;;;5030002;28;20026;-72
2022/06/01 02:22:54;;;;;;;9.77;4.30;;;10.90;99.90;;;;;;5022302;28;20045;-72
2022/06/01 02:25:20;;;;;;;7.75;4.78;;;10.90;99.90;;;;;;5027396;28;20033;-72
2022/06/01 02:27:48;;;;;;;7.97;4.68;;;10.90;99.90;;;;;;5030471;28;20041;-72
2022/06/01 02:30:28;;;;;;;8.50;4.63;;;10.90;99.90;;;;;;5029444;28;20378;-72
2022/06/01 02:32:55;;;;;;;9.03;5.17;;;10.90;99.90;;;;;;5022178;28;20128;-72
2022/06/01 02:35:23;;;;;;;8.77;5.20;;;10.90;99.90;;;;;;5030918;28;20280;-71
2022/06/01 02:37:54;;;;;;;8.50;5.28;;;10.90;99.90;;;;;;5030653;28;20053;-72
2022/06/01 02:40:23;;;;;;;8.40;4.88;;;10.90;99.90;;;;;;5031114;28;20033;-71
2022/06/01 02:42:51;;;;;;;10.25;5.03;;;10.90;99.90;;;;;;5028022;28;20124;-72
2022/06/01 02:45:22;;;;;;;6.90;5.05;;;10.90;99.90;;;;;;5030730;28;20151;-72
2022/06/01 02:47:52;;;;;;;9.57;5.07;;;11.00;99.90;;;;;;5029316;28;20029;-72
2022/06/01 02:50:26;;;;;;;9.60;4.72;;;10.90;99.90;;;;;;5030423;28;20122;-73
2022/06/01 02:52:53;;;;;;;7.65;4.57;;;10.90;99.90;;;;;;5021977;28;20029;-72
2022/06/01 02:55:21;;;;;;;9.88;5.30;;;11.00;99.90;;;;;;5029334;28;20042;-72
2022/06/01 02:57:47;;;;;;;7.82;5.15;;;11.00;99.90;;;;;;5030793;28;20056;-72
2022/06/01 03:00:26;;;;;;;11.95;5.78;;;11.00;99.90;;;;;;5030435;28;20026;-72
2022/06/01 03:02:56;;;;;;;11.55;5.28;;;11.00;99.90;;;;;;5021349;28;20043;-72
2022/06/01 03:05:26;;;;;;;10.32;4.60;;;11.00;99.90;;;;;;5022257;28;20030;-72
2022/06/01 03:07:52;;;;;;;10.07;5.50;;;11.00;99.90;;;;;;5020982;28;20030;-72
2022/06/01 03:10:19;;;;;;;9.73;5.18;;;11.00;99.90;;;;;;5030688;28;20048;-72
2022/06/01 03:12:45;;;;;;;11.57;5.90;;;11.00;99.90;;;;;;5023614;28;20520;-73
2022/06/01 03:15:13;;;;;;;15.13;5.30;;;11.00;99.90;;;;;;5022774;28;20124;-72
2022/06/01 03:17:39;;;;;;;10.60;6.10;;;11.00;99.90;;;;;;5030381;28;20099;-71
2022/06/01 03:20:08;;;;;;;9.18;5.45;;;11.00;99.90;;;;;;5030065;28;20059;-73
2022/06/01 03:22:37;;;;;;;9.43;5.82;;;11.00;99.90;;;;;;5030246;28;20033;-72
2022/06/01 03:25:06;;;;;;;14.98;6.10;;;11.00;99.90;;;;;;5025447;28;20053;-72
2022/06/01 03:27:31;;;;;;;11.57;5.35;;;10.90;99.90;;;;;;5030433;28;20458;-73
2022/06/01 03:29:57;;;;;;;11.32;6.22;;;10.90;99.90;;;;;;5029596;28;22545;-72
2022/06/01 03:32:23;;;;;;;15.75;6.10;;;10.90;99.90;;;;;;5030042;28;20517;-72
2022/06/01 03:34:48;;;;;;;15.00;6.68;;;10.80;99.90;;;;;;5029909;28;20129;-72
2022/06/01 03:37:14;;;;;;;13.68;7.93;;;10.80;99.90;;;;;;5028354;28;20315;-72
2022/06/01 03:39:39;;;;;;;13.93;7.38;;;10.70;99.90;;;;;;5029591;28;20114;-72
2022/06/01 03:42:05;;;;;;;15.63;7.20;;;10.70;99.90;;;;;;5028938;28;20033;-72
2022/06/01 03:47:15;;;;;;;12.90;6.57;;;10.60;99.90;;;;;;5028887;28;20035;-72
2022/06/01 03:49:42;;;;;;;12.73;6.80;;;10.60;99.90;;;;;;5029442;28;20132;-72
2022/06/01 03:52:09;;;;;;;11.05;6.28;;;10.60;99.90;;;;;;5027933;28;20508;-73
2022/06/01 03:54:35;;;;;;;11.80;6.40;;;10.50;99.90;;;;;;5028555;28;20107;-73
2022/06/01 03:57:02;;;;;;;10.07;5.32;;;10.50;99.90;;;;;;5026844;28;20022;-72
2022/06/01 03:59:28;;;;;;;9.90;5.22;;;10.50;99.90;;;;;;5028898;28;20071;-72
2022/06/01 04:01:54;;;;;;;8.23;4.38;;;10.40;99.90;;;;;;5028224;28;20053;-73
2022/06/01 04:04:19;;;;;;;8.63;4.70;;;10.40;99.90;;;;;;5028457;28;20195;-73
2022/06/01 04:06:45;;;;;;;8.55;4.55;;;10.40;99.90;;;;;;5030484;28;20041;-72
2022/06/01 04:09:11;;;;;;;9.82;4.35;;;10.30;99.90;;;;;;5028159;28;20029;-72
2022/06/01 04:11:36;;;;;;;10.52;5.47;;;10.30;99.90;;;;;;5029432;28;20048;-72
2022/06/01 04:14:02;;;;;;;7.93;4.60;;;10.30;99.90;;;;;;5028643;28;20044;-72
2022/06/01 04:16:28;;;;;;;6.82;4.10;;;10.20;99.90;;;;;;5029174;28;20532;-72
2022/06/01 04:18:54;;;;;;;8.60;4.22;;;10.20;99.90;;;;;;5028771;28;20033;-73
2022/06/01 04:21:24;;;;;;;11.38;4.38;;;10.30;99.90;;;;;;5023302;28;20033;-72
2022/06/01 04:23:50;;;;;;;7.93;4.30;;;10.20;99.90;;;;;;5018374;28;20029;-73
2022/06/01 04:26:16;;;;;;;11.95;4.40;;;10.30;99.90;;;;;;5028534;28;20026;-72
2022/06/01 04:28:43;;;;;;;8.15;4.28;;;10.30;99.90;;;;;;5032674;28;20083;-72
2022/06/01 04:31:09;;;;;;;7.63;4.05;;;10.30;99.90;;;;;;5026030;28;20525;-73
2022/06/01 04:33:43;;;;;;;5.45;3.58;;;10.30;99.90;;;;;;5009347;28;20042;-73
2022/06/01 04:36:09;;;;;;;6.00;3.15;;;10.40;99.90;;;;;;5015414;28;20038;-72
2022/06/01 04:38:34;;;;;;;4.68;2.75;;;10.40;99.90;;;;;;5015857;28;20033;-72
2022/06/01 04:41:00;;;;;;;4.32;1.65;;;10.40;99.90;;;;;;5014824;28;20387;-72
2022/06/01 04:43:26;;;;;;;2.55;1.67;;;10.30;99.90;;;;;;5013631;28;20113;-72
2022/06/01 04:45:55;;;;;;;3.35;1.55;;;10.30;99.90;;;;;;5012655;28;20429;-72
2022/06/01 04:48:22;;;;;;;3.47;1.50;;;10.30;99.90;;;;;;5016475;28;20069;-72
2022/06/01 04:50:48;;;;;;;1.65;1.10;;;10.20;99.90;;;;;;5014924;28;20083;-71
2022/06/01 04:53:15;;;;;;;2.60;1.00;;;10.20;99.90;;;;;;5014585;28;20030;-72
2022/06/01 04:55:43;;;;;;;4.28;1.13;;;10.20;99.90;;;;;;5019252;28;20037;-72
2022/06/01 04:58:09;;;;;;;1.55;0.93;;;10.20;99.90;;;;;;5018780;28;20037;-72
2022/06/01 05:00:35;;;;;;;3.28;1.13;;;10.10;99.90;;;;;;5022711;28;20053;-72
2022/06/01 05:03:02;;;;;;;1.35;0.98;;;10.10;99.90;;;;;;5019805;28;20042;-72
2022/06/01 05:05:28;;;;;;;1.35;0.85;;;10.20;99.90;;;;;;5021628;28;20045;-72
2022/06/01 05:07:54;;;;;;;1.73;1.00;;;10.10;99.90;;;;;;5020771;28;20091;-72
2022/06/01 05:10:21;;;;;;;1.73;1.35;;;10.10;99.90;;;;;;5013246;28;20050;-72
2022/06/01 05:12:48;;;;;;;3.15;1.25;;;10.10;99.90;;;;;;5010587;28;20033;-72
2022/06/01 05:15:15;;;;;;;1.70;1.17;;;10.10;99.90;;;;;;5024290;28;20040;-72
2022/06/01 05:17:40;;;;;;;2.28;1.00;;;10.10;99.90;;;;;;5031138;28;20072;-72
2022/06/01 05:20:08;;;;;;;2.92;1.23;;;10.20;99.90;;;;;;5032582;28;20478;-73
2022/06/01 05:22:33;;;;;;;1.80;1.10;;;10.20;99.90;;;;;;5023040;28;20087;-71
2022/06/01 05:24:59;;;;;;;3.25;1.70;;;10.30;99.90;;;;;;5010891;28;20042;-72
2022/06/01 05:27:25;;;;;;;2.30;1.20;;;10.30;99.90;;;;;;5018167;28;20033;-73
2022/06/01 05:29:51;;;;;;;1.70;1.13;;;10.30;99.90;;;;;;5017779;28;20037;-74
2022/06/01 05:32:17;;;;;;;1.83;1.20;;;10.40;99.90;;;;;;5010960;28;20040;-73
2022/06/01 05:34:43;;;;;;;1.58;1.05;;;10.50;99.90;;;;;;5009611;28;20042;-74
2022/06/01 05:37:08;;;;;;;2.85;0.90;;;10.70;99.90;;;;;;5018417;28;21038;-73
2022/06/01 05:39:34;;;;;;;2.00;1.10;;;10.90;99.90;;;;;;5017556;28;20105;-73
2022/06/01 05:42:00;;;;;;;3.40;1.10;;;11.20;99.90;;;;;;5014598;28;20426;-73
2022/06/01 05:44:26;;;;;;;1.20;0.90;;;11.60;99.90;;;;;;5019675;28;20042;-72
2022/06/01 05:46:55;;;;;;;0.98;0.60;;;12.00;99.90;;;;;;5015534;28;20033;-74
2022/06/01 05:49:21;;;;;;;1.83;0.70;;;12.30;99.90;;;;;;5013046;28;20038;-72
2022/06/01 05:51:46;;;;;;;1.27;0.50;;;12.70;99.90;;;;;;5014899;28;20092;-74
2022/06/01 05:54:12;;;;;;;1.30;0.60;;;13.20;99.90;;;;;;5015266;28;20291;-73
2022/06/01 05:56:37;;;;;;;0.80;0.40;;;13.50;99.90;;;;;;5017903;28;20034;-73
2022/06/01 05:59:03;;;;;;;1.27;0.70;;;13.90;99.90;;;;;;5021218;28;20041;-73
2022/06/01 06:01:29;;;;;;;0.85;0.50;;;14.10;99.90;;;;;;5023982;28;20527;-72
2022/06/01 06:03:54;;;;;;;1.23;0.45;;;14.30;99.90;;;;;;5016860;28;20060;-73
2022/06/01 06:06:22;;;;;;;1.65;0.70;;;14.50;99.90;;;;;;5019146;28;20037;-72
2022/06/01 06:08:52;;;;;;;1.42;0.52;;;14.70;99.90;;;;;;5012903;28;20377;-73
2022/06/01 06:11:18;;;;;;;3.05;0.80;;;15.00;99.90;;;;;;5017089;28;20041;-71
2022/06/01 06:13:44;;;;;;;3.72;1.00;;;15.10;99.90;;;;;;5013433;28;20122;-72
2022/06/01 06:16:11;;;;;;;2.53;0.85;;;15.20;99.90;;;;;;5011759;28;20037;-73
2022/06/01 06:18:37;;;;;;;2.95;0.88;;;15.30;99.90;;;;;;5014315;28;20025;-73
2022/06/01 06:21:03;;;;;;;1.70;0.80;;;15.30;99.90;;;;;;5014883;28;20046;-73
2022/06/01 06:23:29;;;;;;;2.25;1.05;;;15.40;99.90;;;;;;5017906;28;20034;-73
2022/06/01 06:25:55;;;;;;;1.55;1.00;;;15.60;99.90;;;;;;5014339;28;20112;-73
2022/06/01 06:28:21;;;;;;;4.32;1.05;;;15.80;99.90;;;;;;5011722;28;20071;-73
2022/06/01 06:30:46;;;;;;;3.50;1.30;;;16.30;99.90;;;;;;5012071;28;20038;-72
2022/06/01 06:33:12;;;;;;;3.03;1.02;;;16.50;99.90;;;;;;5016278;28;20560;-73
2022/06/01 06:35:37;;;;;;;3.95;1.23;;;17.10;99.90;;;;;;5014646;28;20061;-73
2022/06/01 06:38:04;;;;;;;2.50;1.10;;;17.80;99.90;;;;;;5010502;28;20056;-74
2022/06/01 06:40:30;;;;;;;2.08;0.98;;;18.90;99.90;;;;;;5017243;28;20030;-73
2022/06/01 06:42:56;;;;;;;2.38;1.00;;;19.20;99.90;;;;;;5010839;28;20124;-73
2022/06/01 06:45:22;;;;;;;1.40;0.90;;;18.80;99.90;;;;;;5008045;28;20054;-73
2022/06/01 06:47:49;;;;;;;1.55;1.10;;;18.70;99.90;;;;;;5011779;28;20045;-74
2022/06/01 06:50:17;;;;;;;1.17;0.68;;;18.90;99.90;;;;;;5011905;28;20072;-73
2022/06/01 06:52:42;;;;;;;1.08;0.70;;;19.40;99.90;;;;;;5010984;28;20634;-73
2022/06/01 06:55:08;;;;;;;2.55;0.90;;;20.70;99.90;;;;;;5006337;28;20041;-74
2022/06/01 06:57:34;;;;;;;2.47;0.98;;;21.60;99.90;;;;;;5015417;28;20026;-74
2022/06/01 07:00:01;;;;;;;2.15;1.13;;;21.10;99.90;;;;;;5011641;28;20084;-74
2022/06/01 07:02:27;;;;;;;4.03;0.90;;;21.20;99.90;;;;;;5008253;28;20030;-74
2022/06/01 07:04:52;;;;;;;4.55;1.13;;;20.90;99.90;;;;;;5011158;28;20026;-72
2022/06/01 07:07:18;;;;;;;1.58;1.13;;;20.90;99.90;;;;;;5013604;28;20033;-74
2022/06/01 07:09:43;;;;;;;3.53;0.70;;;21.10;99.90;;;;;;5007071;28;20037;-74
2022/06/01 07:12:12;;;;;;;0.98;0.75;;;21.60;99.90;;;;;;5014154;28;20037;-74
2022/06/01 07:14:38;;;;;;;2.78;0.90;;;21.80;99.90;;;;;;5012690;28;20026;-74
2022/06/01 07:17:04;;;;;;;3.03;1.27;;;21.90;99.90;;;;;;5009316;28;20247;-74
2022/06/01 07:19:31;;;;;;;1.52;0.88;;;21.60;99.90;;;;;;5013559;28;20040;-73
2022/06/01 07:21:56;;;;;;;1.63;0.55;;;20.80;99.90;;;;;;5013688;28;20037;-74
2022/06/01 07:24:22;;;;;;;1.08;0.63;;;20.60;99.90;;;;;;5011858;28;20373;-74
2022/06/01 07:26:48;;;;;;;4.47;1.23;;;21.60;99.90;;;;;;5011242;28;20393;-74
2022/06/01 07:29:16;;;;;;;2.33;0.98;;;22.70;99.90;;;;;;5013605;28;20109;-74
2022/06/01 07:31:42;;;;;;;1.08;0.77;;;23.90;99.90;;;;;;5010261;28;20022;-73
2022/06/01 07:34:08;;;;;;;1.88;1.00;;;24.00;98.30;;;;;;5008960;28;20050;-73
2022/06/01 07:36:37;;;;;;;4.95;0.82;;;24.00;97.10;;;;;;5014095;28;20052;-74
2022/06/01 07:44:49;;;;;;;1.85;0.75;;;20.60;99.50;;;;;;5007470;28;20548;-73
2022/06/01 07:47:15;;;;;;;1.35;0.75;;;21.20;99.90;;;;;;5012159;28;20026;-73
2022/06/01 07:49:40;;;;;;;2.50;0.57;;;22.50;97.40;;;;;;5013406;28;20500;-74
2022/06/01 07:52:11;;;;;;;1.15;0.77;;;23.60;97.50;;;;;;5009197;28;20116;-74
2022/06/01 07:54:38;;;;;;;6.97;0.80;;;24.40;96.00;;;;;;5007841;28;20053;-73
2022/06/01 07:57:04;;;;;;;1.85;0.60;;;24.90;94.00;;;;;;5015067;28;20124;-74
2022/06/01 07:59:30;;;;;;;0.68;0.30;;;24.10;92.00;;;;;;5017905;28;20052;-73
2022/06/01 08:01:55;;;;;;;2.58;0.50;;;22.90;92.40;;;;;;5017509;28;20128;-73
2022/06/01 08:04:21;;;;;;;0.95;0.35;;;21.60;95.20;;;;;;5020137;28;20092;-73
2022/06/01 08:06:47;;;;;;;2.50;0.73;;;20.60;96.90;;;;;;5020197;28;22046;-74
2022/06/01 08:09:13;;;;;;;1.10;0.60;;;19.70;98.00;;;;;;5015397;28;20038;-74
2022/06/01 08:14:23;;;;;;;1.38;0.60;;;18.30;99.90;;;;;;5022077;28;20033;-72
2022/06/01 08:16:48;;;;;;;1.17;0.75;;;17.80;99.90;;;;;;5019828;28;20038;-74
2022/06/01 08:19:15;;;;;;;0.82;0.60;;;17.40;99.90;;;;;;5018552;28;20033;-73
2022/06/01 08:21:42;;;;;;;2.20;0.70;;;17.30;99.90;;;;;;5024651;28;20025;-73
2022/06/01 08:24:08;;;;;;;4.82;0.73;;;17.60;99.90;;;;;;5020701;28;20497;-74
2022/06/01 08:26:34;;;;;;;1.17;0.77;;;18.00;99.90;;;;;;5017606;28;20037;-73
2022/06/01 08:29:02;;;;;;;2.42;0.80;;;18.20;99.90;;;;;;5021758;28;20029;-74
2022/06/01 08:31:29;;;;;;;3.63;0.88;;;18.60;99.90;;;;;;5022405;28;20045;-73
2022/06/01 08:33:56;;;;;;;1.13;0.50;;;18.90;99.90;;;;;;5018863;28;20038;-73
2022/06/01 08:36:21;;;;;;;0.77;0.40;;;19.00;99.90;;;;;;5018010;28;20026;-73
2022/06/01 08:38:47;;;;;;;3.78;1.13;;;19.00;99.50;;;;;;5023415;28;20096;-72
2022/06/01 08:41:14;;;;;;;3.15;0.30;;;18.80;99.90;;;;;;5019382;28;20125;-73
2022/06/01 08:43:55;;;;;;;0.55;0.17;;;18.70;99.90;;;;;;5018263;28;20506;-73
2022/06/01 08:46:23;;;;;;;0.30;0.20;;;18.50;99.80;;;;;;5021655;28;20657;-74
2022/06/01 08:48:50;;;;;;;1.50;0.40;;;18.40;99.90;;;;;;5021153;28;20534;-72
2022/06/01 08:51:23;;;;;;;2.83;0.30;;;18.40;99.90;;;;;;5019554;28;20075;-73
2022/06/01 08:53:49;;;;;;;0.52;0.20;;;18.30;99.90;;;;;;5017595;28;20124;-73
2022/06/01 08:56:23;;;;;;;0.77;0.22;;;18.30;99.90;;;;;;5023551;28;20125;-73
2022/06/01 08:59:05;;;;;;;2.55;0.50;;;18.10;99.60;;;;;;5021007;28;20502;-74
2022/06/01 09:01:44;;;;;;;3.13;0.40;;;18.20;99.90;;;;;;5015430;28;20744;-73
2022/06/01 09:04:25;;;;;;;1.10;0.35;;;18.50;99.90;;;;;;5011901;28;20038;-73
2022/06/01 09:07:14;;;;;;;0.65;0.20;;;18.70;99.90;;;;;;5019592;28;20084;-73
2022/06/01 09:09:54;;;;;;;1.65;0.20;;;18.50;99.90;;;;;;5014845;28;20066;-73
2022/06/01 09:12:20;;;;;;;1.10;0.20;;;18.10;98.90;;;;;;5014546;28;20033;-73
2022/06/01 09:14:51;;;;;;;1.55;0.40;;;17.70;99.90;;;;;;5014546;28;20038;-73
2022/06/01 09:17:17;;;;;;;1.05;0.68;;;17.60;99.90;;;;;;5016907;28;20037;-73
2022/06/01 09:22:37;;;;;;;0.38;0.22;;;17.80;99.90;;;;;;5008077;28;20060;-73
2022/06/01 09:25:07;;;;;;;1.60;0.20;;;17.90;99.90;;;;;;5007586;28;20037;-73
2022/06/01 09:27:39;;;;;;;2.28;0.77;;;18.00;99.90;;;;;;5011701;28;20034;-73
2022/06/01 09:30:22;;;;;;;1.95;0.70;;;18.30;99.90;;;;;;5017051;28;20041;-73
2022/06/01 09:33:14;;;;;;;2.35;0.30;;;18.50;99.30;;;;;;5012878;28;20030;-74
2022/06/01 09:36:01;;;;;;;0.73;0.32;;;18.60;99.20;;;;;;5006495;28;20049;-73
2022/06/01 09:38:53;;;;;;;2.03;0.63;;;18.50;99.70;;;;;;5010619;28;20045;-73
2022/06/01 09:41:36;;;;;;;1.95;0.35;;;18.50;99.90;;;;;;5010617;28;20030;-73
2022/06/01 09:44:08;;;;;;;1.77;0.40;;;18.80;99.90;;;;;;5010688;28;20865;-73
2022/06/01 09:46:54;;;;;;;1.58;0.10;;;18.90;98.40;;;;;;5009041;28;20136;-73
2022/06/01 09:49:29;;;;;;;0.77;0.30;;;18.90;98.80;;;;;;5011771;28;20033;-73
2022/06/01 09:52:00;;;;;;;3.78;0.20;;;18.90;97.40;;;;;;5015217;28;20025;-73
2022/06/01 09:54:32;;;;;;;0.55;0.10;;;19.00;98.40;;;;;;5011437;28;20038;-72
2022/06/01 09:57:18;;;;;;;2.75;0.30;;;19.10;97.20;;;;;;5011591;28;20026;-72
2022/06/01 10:08:15;;;;;;;1.75;0.45;;;19.10;97.30;;;;;;5012532;28;20056;-73
2022/06/01 10:11:05;;;;;;;1.02;0.28;;;19.00;98.00;;;;;;5010987;28;20103;-73
2022/06/01 10:13:47;;;;;;;0.70;0.38;;;19.10;97.90;;;;;;5007398;28;20061;-73
2022/06/01 10:16:29;;;;;;;0.55;0.30;;;19.20;98.50;;;;;;5012799;28;20836;-73
2022/06/01 10:18:58;;;;;;;0.28;0.10;;;19.30;97.70;;;;;;5012283;28;20059;-73
2022/06/01 10:21:30;;;;;;;0.80;0.20;;;19.40;96.80;;;;;;5014202;28;20025;-73
2022/06/01 10:24:10;;;;;;;0.52;0.17;;;19.70;97.50;;;;;;5006299;28;20046;-73
2022/06/01 10:26:39;;;;;;;2.80;0.50;;;20.00;97.50;;;;;;5015249;28;20050;-73
2022/06/01 10:29:13;;;;;;;0.32;0.17;;;20.30;96.40;;;;;;5011455;28;20528;-73
2022/06/01 10:31:44;;;;;;;1.60;0.30;;;20.20;96.00;;;;;;5012010;28;20034;-73
2022/06/01 10:34:15;;;;;;;1.00;0.20;;;20.50;98.20;;;;;;5013063;28;20030;-73
2022/06/01 10:36:46;;;;;;;0.03;0.00;;;20.60;95.40;;;;;;5013320;28;20476;-72
2022/06/01 10:39:29;;;;;;;2.15;0.52;;;20.50;94.00;;;;;;5011168;28;20497;-73
2022/06/01 10:42:06;;;;;;;2.60;0.30;;;20.30;95.50;;;;;;5010274;28;20050;-74
2022/06/01 10:45:02;;;;;;;2.47;0.20;;;20.20;94.60;;;;;;5013671;28;20050;-72
2022/06/01 10:47:37;;;;;;;1.67;0.20;;;20.00;94.70;;;;;;5008984;28;20596;-73
2022/06/01 10:50:32;;;;;;;3.15;0.38;;;20.10;94.70;;;;;;5008701;28;20548;-73
2022/06/01 10:53:13;;;;;;;0.85;0.20;;;20.20;96.30;;;;;;4984816;28;20765;-73
2022/06/01 10:55:42;;;;;;;5.90;0.40;;;20.20;96.80;;;;;;5008823;28;20035;-73
2022/06/01 10:58:11;;;;;;;1.47;0.60;;;20.20;95.30;;;;;;5010651;28;20030;-73
2022/06/01 11:00:53;;;;;;;1.20;0.40;;;20.30;94.60;;;;;;5014029;28;20275;-73
2022/06/01 11:03:27;;;;;;;0.68;0.22;;;20.20;94.90;;;;;;5028956;28;20030;-73
2022/06/01 11:06:11;;;;;;;0.85;0.20;;;19.90;93.60;;;;;;5019198;28;20124;-73
2022/06/01 11:08:45;;;;;;;1.75;0.10;;;19.90;94.50;;;;;;5023907;28;20026;-73
2022/06/01 11:11:32;;;;;;;0.60;0.20;;;19.90;94.30;;;;;;5028902;28;20697;-73
2022/06/01 11:14:07;;;;;;;0.35;0.20;;;19.80;95.10;;;;;;5021685;28;20044;-73
2022/06/01 11:16:54;;;;;;;1.88;0.10;;;19.90;94.30;;;;;;5029047;28;20537;-71
2022/06/01 11:19:23;;;;;;;1.65;0.15;;;20.00;93.90;;;;;;5027321;28;20040;-73
2022/06/01 11:22:15;;;;;;;5.03;0.25;;;20.20;94.70;;;;;;5027155;28;20559;-74
2022/06/01 11:25:10;;;;;;;0.28;0.10;;;20.50;94.40;;;;;;5018369;28;20140;-73
2022/06/01 11:28:01;;;;;;;0.90;0.20;;;20.70;95.30;;;;;;5021141;28;20037;-73
2022/06/01 11:30:50;;;;;;;0.77;0.30;;;20.80;93.10;;;;;;5016940;28;20044;-73
2022/06/01 11:33:36;;;;;;;1.25;0.35;;;20.70;93.80;;;;;;5013641;28;20775;-73
2022/06/01 11:36:30;;;;;;;0.90;0.50;;;20.60;93.50;;;;;;5010767;28;20041;-72
2022/06/01 11:39:11;;;;;;;9.07;0.80;;;20.20;94.60;;;;;;5008078;28;20045;-73
2022/06/01 11:41:41;;;;;;;1.70;0.30;;;19.80;94.00;;;;;;5012596;28;20042;-72
2022/06/01 11:44:14;;;;;;;1.23;0.70;;;19.60;95.30;;;;;;5010113;28;20038;-73
2022/06/01 11:46:50;;;;;;;1.52;0.35;;;19.60;94.90;;;;;;5011104;28;20034;-73
2022/06/01 11:49:32;;;;;;;0.50;0.30;;;19.30;96.30;;;;;;5012777;28;20033;-73
2022/06/01 11:52:31;;;;;;;0.80;0.40;;;19.10;96.10;;;;;;5007141;28;20036;-73
2022/06/01 11:55:06;;;;;;;4.90;0.47;;;18.90;96.10;;;;;;5011075;28;20533;-73
2022/06/01 11:57:53;;;;;;;0.82;0.20;;;18.70;95.50;;;;;;5013740;28;20033;-72
2022/06/01 12:00:40;;;;;;;1.27;0.47;;;18.70;96.60;;;;;;5022388;28;20026;-72
2022/06/01 12:03:29;;;;;;;3.55;0.60;;;18.60;96.10;;;;;;5022102;28;20049;-72
2022/06/01 12:06:07;;;;;;;3.05;0.52;;;18.50;96.10;;;;;;5021389;28;20456;-73
2022/06/01 12:08:46;;;;;;;2.42;0.65;;;18.50;96.70;;;;;;5029146;28;20491;-75
2022/06/01 12:11:45;;;;;;;2.35;0.93;;;18.50;96.80;;;;;;5015633;28;20037;-72
2022/06/01 12:14:17;;;;;;;0.88;0.40;;;18.60;97.70;;;;;;5019347;28;20037;-72
2022/06/01 12:16:43;;;;;;;2.30;0.90;;;18.70;95.50;;;;;;5027040;28;20061;-71
2022/06/01 12:19:30;;;;;;;2.15;0.75;;;18.80;96.20;;;;;;5021178;28;20034;-72
2022/06/01 12:22:02;;;;;;;2.30;0.93;;;18.70;96.30;;;;;;5015119;28;20050;-73
2022/06/01 12:30:14;;;;;;;2.28;0.80;;;18.70;96.60;;;;;;5024541;28;20060;-73
2022/06/01 12:33:00;;;;;;;1.25;0.60;;;18.60;95.90;;;;;;5028423;28;20036;-73
2022/06/01 12:35:32;;;;;;;1.33;0.50;;;18.60;96.40;;;;;;5021773;28;20038;-71
2022/06/01 12:38:09;;;;;;;1.00;0.60;;;18.70;96.20;;;;;;5027935;28;20037;-71
2022/06/01 12:40:36;;;;;;;1.52;0.75;;;19.00;96.50;;;;;;5028654;28;20026;-73
2022/06/01 12:43:03;;;;;;;1.60;0.55;;;19.30;94.60;;;;;;5028218;28;20030;-73
2022/06/01 12:45:41;;;;;;;0.95;0.25;;;19.00;94.90;;;;;;5032461;28;20063;-73
2022/06/01 12:48:14;;;;;;;1.75;0.60;;;19.20;95.60;;;;;;5031263;28;20497;-73
2022/06/01 12:51:01;;;;;;;1.25;0.50;;;19.20;95.30;;;;;;5030557;28;20472;-73
2022/06/01 12:53:50;;;;;;;1.85;0.52;;;19.30;95.20;;;;;;5024264;28;20085;-73
2022/06/01 12:56:20;;;;;;;1.17;0.50;;;19.30;94.70;;;;;;5031102;28;20192;-73
2022/06/01 12:58:49;;;;;;;4.55;1.02;;;19.40;95.00;;;;;;5031653;28;20505;-73
2022/06/01 13:01:20;;;;;;;2.38;1.08;;;19.30;95.00;;;;;;5027108;28;20038;-73
2022/06/01 13:03:51;;;;;;;1.83;0.73;;;19.40;95.10;;;;;;5031377;28;20107;-73
2022/06/01 13:06:22;;;;;;;1.73;0.60;;;19.10;95.20;;;;;;5023054;28;20037;-73
2022/06/01 13:08:57;;;;;;;1.75;0.80;;;19.00;95.70;;;;;;5023120;28;20079;-73
2022/06/01 13:11:32;;;;;;;0.82;0.47;;;18.80;96.00;;;;;;5023171;28;20405;-73
2022/06/01 13:13:59;;;;;;;3.35;0.50;;;19.00;95.40;;;;;;5030602;28;20033;-72
2022/06/01 13:16:38;;;;;;;1.48;0.40;;;19.00;94.90;;;;;;5032110;28;20044;-71
2022/06/01 13:19:20;;;;;;;2.08;0.70;;;18.90;95.20;;;;;;5031144;28;20060;-71
2022/06/01 13:21:56;;;;;;;4.85;1.40;;;18.90;94.30;;;;;;5022872;28;20056;-71
2022/06/01 13:24:23;;;;;;;2.65;0.43;;;19.00;96.10;;;;;;5024896;28;20045;-71
2022/06/01 13:26:51;;;;;;;1.30;0.40;;;19.40;95.90;;;;;;5029310;28;20033;-71
2022/06/01 13:29:23;;;;;;;1.60;0.50;;;19.50;94.50;;;;;;5025604;28;20115;-71
2022/06/01 13:31:52;;;;;;;0.60;0.50;;;19.40;93.60;;;;;;5021776;28;20030;-71
2022/06/01 13:34:31;;;;;;;4.93;0.93;;;19.30;94.10;;;;;;5023551;28;20112;-71
2022/06/01 13:37:25;;;;;;;1.48;0.50;;;19.30;94.80;;;;;;5026065;28;20117;-71
2022/06/01 13:39:59;;;;;;;0.93;0.50;;;19.20;94.10;;;;;;5024103;28;20398;-73